Time;durP1;ratioP1;P1;durP2;ratioP2;P2;SDS_P1;SDS_P2;PMS_P1;PMS_P2;Temp;Humidity;BMP_temperature;BMP_pressure;BME280_temperature;BME280_humidity;BME280_pressure;Samples;Min_cycle;Max_cycle;Signal;HPM_P1;HPM_P2
2023/02/10 00:00:46;;;;;;;75.00;40.75;;;;;;;2.62;99.15;102810.66;4981348;28;20047;-80
2023/02/10 00:03:13;;;;;;;69.63;39.72;;;;;;;2.61;98.84;102812.41;4982089;28;20121;-79
2023/02/10 00:05:39;;;;;;;69.95;40.72;;;;;;;2.71;98.77;102830.19;4981875;28;20129;-80
2023/02/10 00:08:06;;;;;;;66.68;39.65;;;;;;;2.73;98.73;102821.50;4983463;28;20050;-79
2023/02/10 00:10:34;;;;;;;66.78;38.47;;;;;;;2.69;98.23;102821.63;4982779;28;20051;-77
2023/02/10 00:13:01;;;;;;;67.22;38.97;;;;;;;2.73;98.35;102834.41;4981293;28;20070;-80
2023/02/10 00:15:27;;;;;;;74.78;41.30;;;;;;;2.80;98.31;102822.13;4981971;28;20137;-80
2023/02/10 00:17:54;;;;;;;71.93;39.92;;;;;;;2.72;98.22;102816.38;4982914;28;20061;-79
2023/02/10 00:20:21;;;;;;;65.18;39.22;;;;;;;2.73;97.97;102828.41;4981992;28;20085;-79
2023/02/10 00:22:47;;;;;;;68.88;40.33;;;;;;;2.65;98.06;102815.72;4982070;28;20398;-81
2023/02/10 00:25:14;;;;;;;69.97;41.10;;;;;;;2.71;97.82;102815.53;4982267;28;20054;-79
2023/02/10 00:27:42;;;;;;;70.18;38.72;;;;;;;2.65;97.97;102816.56;4980204;28;20085;-79
2023/02/10 00:30:10;;;;;;;68.13;38.05;;;;;;;2.65;98.15;102813.13;4981463;28;20089;-77
2023/02/10 00:32:40;;;;;;;69.30;39.30;;;;;;;2.59;97.82;102815.94;4982143;28;20072;-78
2023/02/10 00:35:07;;;;;;;67.43;40.17;;;;;;;2.64;98.06;102830.38;4980671;28;20055;-79
2023/02/10 00:37:33;;;;;;;61.25;37.83;;;;;;;2.65;97.75;102820.91;4980079;28;20705;-78
2023/02/10 00:40:00;;;;;;;67.20;38.03;;;;;;;2.73;97.83;102825.81;4979615;28;20070;-79
2023/02/10 00:42:27;;;;;;;62.00;39.03;;;;;;;2.67;98.08;102829.44;4980086;28;20142;-79
2023/02/10 00:44:55;;;;;;;70.60;39.67;;;;;;;2.63;97.83;102833.03;4978791;28;20093;-79
2023/02/10 00:47:23;;;;;;;65.47;38.30;;;;;;;2.60;97.98;102839.13;4978930;28;20082;-79
2023/02/10 00:49:50;;;;;;;68.95;40.00;;;;;;;2.65;97.77;102820.91;4979411;28;20129;-79
2023/02/10 00:52:16;;;;;;;67.80;39.22;;;;;;;2.60;97.88;102827.97;4980041;28;20054;-79
2023/02/10 00:54:43;;;;;;;67.47;37.95;;;;;;;2.59;98.44;102828.84;4981325;28;20485;-80
2023/02/10 00:57:10;;;;;;;66.82;39.00;;;;;;;2.57;98.01;102834.06;4982114;28;20050;-78
2023/02/10 00:59:37;;;;;;;68.25;38.72;;;;;;;2.53;98.65;102835.06;4980550;28;20074;-79
2023/02/10 01:02:05;;;;;;;64.82;38.33;;;;;;;2.51;98.65;102844.59;4979902;28;20571;-80
2023/02/10 01:04:31;;;;;;;71.68;38.78;;;;;;;2.47;98.73;102843.00;4980018;28;20149;-78
2023/02/10 01:06:58;;;;;;;71.35;38.70;;;;;;;2.43;98.92;102845.75;4976218;28;20047;-77
2023/02/10 01:09:25;;;;;;;70.35;38.60;;;;;;;2.39;98.78;102844.16;4977179;28;20082;-78
2023/02/10 01:11:51;;;;;;;69.13;37.85;;;;;;;2.35;98.79;102852.94;4978233;28;20051;-78
2023/02/10 01:14:18;;;;;;;67.80;38.70;;;;;;;2.33;99.56;102850.38;4976537;28;20377;-79
2023/02/10 01:16:45;;;;;;;69.70;37.97;;;;;;;2.34;99.67;102849.50;4974197;28;20138;-77
2023/02/10 01:19:13;;;;;;;70.20;38.78;;;;;;;2.32;99.44;102849.53;4973792;28;20468;-78
2023/02/10 01:21:39;;;;;;;72.60;41.75;;;;;;;2.33;99.85;102847.81;4973099;28;20057;-78
2023/02/10 01:24:06;;;;;;;75.50;39.50;;;;;;;2.38;99.98;102857.97;4973343;28;20141;-78
2023/02/10 01:26:33;;;;;;;72.35;38.65;;;;;;;2.36;99.80;102868.38;4972979;28;20557;-79
2023/02/10 01:28:59;;;;;;;62.47;37.08;;;;;;;2.38;100.00;102863.97;4973866;28;20058;-77
2023/02/10 01:31:26;;;;;;;73.75;37.88;;;;;;;2.42;100.00;102868.16;4973106;28;20133;-79
2023/02/10 01:33:54;;;;;;;68.57;39.38;;;;;;;2.37;100.00;102856.28;4972944;28;20050;-79
2023/02/10 01:36:24;;;;;;;66.70;39.40;;;;;;;2.37;100.00;102867.44;4973125;28;20042;-79
2023/02/10 01:38:52;;;;;;;75.18;39.47;;;;;;;2.35;100.00;102860.69;4972560;28;20046;-79
2023/02/10 01:41:21;;;;;;;65.68;38.67;;;;;;;2.35;100.00;102865.84;4973319;28;20514;-79
2023/02/10 01:43:56;;;;;;;70.97;38.97;;;;;;;2.36;100.00;102865.78;4973621;28;20051;-78
2023/02/10 01:46:23;;;;;;;69.15;38.83;;;;;;;2.38;100.00;102866.56;4973360;28;20086;-79
2023/02/10 01:48:50;;;;;;;76.82;38.30;;;;;;;2.44;100.00;102858.63;4974198;28;20070;-79
2023/02/10 01:51:23;;;;;;;75.10;38.28;;;;;;;2.52;100.00;102863.53;4974762;28;20054;-79
2023/02/10 01:53:53;;;;;;;73.20;39.53;;;;;;;2.53;99.74;102865.22;4974437;28;20134;-79
2023/02/10 01:56:19;;;;;;;71.05;39.92;;;;;;;2.53;99.76;102867.81;4973272;28;20057;-78
2023/02/10 01:58:46;;;;;;;67.50;37.53;;;;;;;2.55;99.72;102868.63;4974167;28;20047;-78
2023/02/10 02:01:13;;;;;;;69.90;37.85;;;;;;;2.58;99.72;102881.44;4974254;28;20053;-78
2023/02/10 02:03:41;;;;;;;71.50;40.13;;;;;;;2.59;99.24;102883.97;4974394;28;20070;-79
2023/02/10 02:06:08;;;;;;;76.25;38.53;;;;;;;2.58;98.82;102882.28;4974356;28;20058;-77
2023/02/10 02:08:35;;;;;;;76.13;38.45;;;;;;;2.62;99.26;102878.72;4979029;28;20101;-80
2023/02/10 02:11:13;;;;;;;69.13;37.05;;;;;;;2.62;99.33;102885.63;4978714;28;20075;-80
2023/02/10 02:13:50;;;;;;;68.65;38.53;;;;;;;2.55;99.27;102884.13;4978783;28;20179;-80
2023/02/10 02:16:28;;;;;;;68.57;37.22;;;;;;;2.57;99.22;102880.59;4977804;28;20053;-79
2023/02/10 02:19:00;;;;;;;69.80;36.15;;;;;;;2.54;99.51;102877.25;4976142;28;20129;-77
2023/02/10 02:21:45;;;;;;;;;;;;;;;2.62;98.86;102883.03;4967372;28;20130;-79
2023/02/10 02:25:02;;;;;;;73.47;38.28;;;;;;;2.60;99.17;102890.00;4974053;28;19928;-79
2023/02/10 02:27:54;;;;;;;72.63;38.72;;;;;;;2.57;98.97;102888.34;4914709;29;20469;-79
2023/02/10 02:30:46;;;;;;;70.85;38.42;;;;;;;2.54;98.94;102885.84;4969877;28;20149;-80
2023/02/10 02:33:18;;;;;;;64.18;36.58;;;;;;;2.50;99.31;102893.75;4974647;28;20117;-78
2023/02/10 02:35:50;;;;;;;73.63;39.88;;;;;;;2.52;99.23;102895.41;4975106;28;20134;-79
2023/02/10 02:38:17;;;;;;;68.20;37.60;;;;;;;2.51;99.35;102891.13;4975571;28;20111;-78
2023/02/10 02:40:44;;;;;;;70.90;39.13;;;;;;;2.54;99.46;102900.53;4976106;28;20118;-78
2023/02/10 02:43:10;;;;;;;68.57;39.03;;;;;;;2.52;99.27;102899.72;4975996;28;20057;-79
2023/02/10 02:45:46;;;;;;;71.93;38.50;;;;;;;2.49;99.42;102902.41;4977225;28;20081;-79
2023/02/10 02:48:25;;;;;;;69.03;38.03;;;;;;;2.46;99.26;102898.19;4979895;28;20137;-78
2023/02/10 02:51:00;;;;;;;71.32;40.15;;;;;;;2.48;99.18;102905.88;4978944;28;20051;-79
2023/02/10 02:53:36;;;;;;;66.55;37.05;;;;;;;2.52;99.23;102912.66;4971273;28;20078;-79
2023/02/10 02:56:15;;;;;;;75.68;38.53;;;;;;;2.48;98.89;102911.06;4978107;28;20513;-77
2023/02/10 02:58:50;;;;;;;75.10;38.95;;;;;;;2.55;99.42;102909.97;4978144;28;20069;-80
2023/02/10 03:01:24;;;;;;;67.10;38.20;;;;;;;2.51;99.39;102916.97;4977486;28;20153;-79
2023/02/10 03:03:54;;;;;;;67.80;37.95;;;;;;;2.48;99.30;102917.06;4979439;28;20054;-77
2023/02/10 03:06:21;;;;;;;69.18;37.83;;;;;;;2.43;99.14;102908.59;4975225;28;20047;-78
2023/02/10 03:08:48;;;;;;;71.82;38.60;;;;;;;2.40;99.33;102913.03;4977441;28;20054;-79
2023/02/10 03:11:14;;;;;;;72.43;37.95;;;;;;;2.40;99.38;102921.63;4977176;28;20509;-78
2023/02/10 03:13:41;;;;;;;63.80;38.97;;;;;;;2.36;99.36;102917.47;4976981;28;20057;-77
2023/02/10 03:16:08;;;;;;;70.43;38.70;;;;;;;2.40;99.61;102920.78;4976409;28;20126;-79
2023/02/10 03:18:34;;;;;;;69.18;38.60;;;;;;;2.31;99.45;102917.59;4977104;28;20118;-78
2023/02/10 03:21:02;;;;;;;68.55;39.35;;;;;;;2.34;100.00;102914.09;4977049;28;20158;-79
2023/02/10 03:23:32;;;;;;;67.25;37.85;;;;;;;2.42;100.00;102921.56;4976364;28;20450;-79
2023/02/10 03:25:59;;;;;;;78.38;38.83;;;;;;;2.42;99.84;102919.00;4976720;28;20133;-79
2023/02/10 03:28:26;;;;;;;62.95;37.17;;;;;;;2.37;99.98;102918.28;4977025;28;20380;-78
2023/02/10 03:30:53;;;;;;;76.00;39.03;;;;;;;2.33;100.00;102920.16;4977139;28;20125;-79
2023/02/10 03:33:20;;;;;;;70.20;39.35;;;;;;;2.27;100.00;102928.09;4975810;28;20097;-78
2023/02/10 03:35:47;;;;;;;67.93;38.38;;;;;;;2.26;100.00;102929.81;4975567;28;20050;-79
2023/02/10 03:38:15;;;;;;;73.03;38.67;;;;;;;2.25;100.00;102920.38;4974646;28;20101;-79
2023/02/10 03:40:42;;;;;;;71.45;38.33;;;;;;;2.15;100.00;102910.38;4975014;28;20138;-79
2023/02/10 03:43:09;;;;;;;70.25;39.85;;;;;;;2.03;100.00;102903.81;4974271;28;20057;-78
2023/02/10 03:45:38;;;;;;;70.07;37.80;;;;;;;1.93;100.00;102902.41;4973844;28;20125;-79
2023/02/10 03:48:05;;;;;;;70.85;38.72;;;;;;;1.77;100.00;102889.09;4974894;28;20062;-79
2023/02/10 03:50:31;;;;;;;67.55;38.30;;;;;;;1.77;100.00;102890.84;4970895;28;20494;-80
2023/02/10 03:52:58;;;;;;;70.00;39.22;;;;;;;1.72;100.00;102892.72;4977393;28;20147;-80
2023/02/10 03:55:26;;;;;;;74.85;39.65;;;;;;;1.69;100.00;102870.41;4969750;28;20142;-80
2023/02/10 03:57:52;;;;;;;69.63;39.53;;;;;;;1.72;100.00;102872.91;4976844;28;20073;-78
2023/02/10 04:00:19;;;;;;;71.13;41.45;;;;;;;1.64;100.00;102865.38;4978205;28;20142;-79
2023/02/10 04:02:46;;;;;;;73.43;41.92;;;;;;;1.65;100.00;102858.50;4977126;28;20480;-79
2023/02/10 04:05:12;;;;;;;72.65;41.30;;;;;;;1.56;100.00;102857.00;4977195;28;20051;-77
2023/02/10 04:07:39;;;;;;;71.13;40.35;;;;;;;1.51;100.00;102858.88;4975740;28;20138;-79
2023/02/10 04:10:07;;;;;;;75.63;40.10;;;;;;;1.47;100.00;102869.31;4975587;28;20089;-78
2023/02/10 04:12:35;;;;;;;74.13;39.13;;;;;;;1.43;100.00;102886.63;4975906;28;20082;-79
2023/02/10 04:15:01;;;;;;;75.32;40.50;;;;;;;1.38;100.00;102893.66;4974901;28;20093;-79
2023/02/10 04:17:28;;;;;;;78.65;41.25;;;;;;;1.30;100.00;102901.59;4974846;28;20046;-78
2023/02/10 04:19:54;;;;;;;67.00;38.38;;;;;;;1.16;100.00;102903.69;4975828;28;20145;-79
2023/02/10 04:22:21;;;;;;;76.28;39.70;;;;;;;1.03;100.00;102909.19;4976196;28;20369;-80
2023/02/10 04:24:48;;;;;;;78.20;39.55;;;;;;;0.90;100.00;102906.97;4977379;28;20133;-80
2023/02/10 04:27:14;;;;;;;77.03;41.88;;;;;;;0.80;100.00;102904.63;4977716;28;20094;-78
2023/02/10 04:29:42;;;;;;;76.50;41.75;;;;;;;0.67;100.00;102901.50;4978690;28;20078;-78
2023/02/10 04:32:09;;;;;;;79.30;41.67;;;;;;;0.62;100.00;102905.91;4977052;28;20089;-79
2023/02/10 04:34:36;;;;;;;82.57;41.92;;;;;;;0.53;100.00;102911.28;4973855;28;20088;-80
2023/02/10 04:37:03;;;;;;;76.70;40.60;;;;;;;0.45;100.00;102910.66;4973328;28;20473;-79
2023/02/10 04:39:29;;;;;;;86.40;41.92;;;;;;;0.39;100.00;102915.94;4973764;28;20133;-79
2023/02/10 04:41:56;;;;;;;76.25;40.85;;;;;;;0.38;100.00;102924.53;4974381;28;20137;-79
2023/02/10 04:44:22;;;;;;;80.60;41.70;;;;;;;0.44;100.00;102922.69;4975275;28;20374;-77
2023/02/10 04:46:50;;;;;;;73.32;41.05;;;;;;;0.40;100.00;102920.19;4975177;28;20122;-80
2023/02/10 04:49:18;;;;;;;80.88;42.63;;;;;;;0.38;100.00;102916.81;4974638;28;20055;-79
2023/02/10 04:51:44;;;;;;;80.57;41.70;;;;;;;0.47;100.00;102916.59;4974290;28;20064;-78
2023/02/10 04:54:13;;;;;;;79.75;41.92;;;;;;;0.49;100.00;102909.66;4974670;28;20527;-79
2023/02/10 04:56:40;;;;;;;86.35;42.83;;;;;;;0.50;100.00;102926.81;4978452;28;20050;-79
2023/02/10 04:59:10;;;;;;;86.65;43.17;;;;;;;0.43;100.00;102920.97;4982579;28;20069;-79
2023/02/10 05:01:36;;;;;;;82.85;44.17;;;;;;;0.36;100.00;102922.00;4984883;28;20138;-79
2023/02/10 05:04:06;;;;;;;84.03;44.22;;;;;;;0.42;100.00;102941.63;4982391;28;20078;-78
2023/02/10 05:06:33;;;;;;;80.13;44.63;;;;;;;0.29;100.00;102936.75;4983329;28;20595;-78
2023/02/10 05:09:03;;;;;;;84.47;43.25;;;;;;;0.39;100.00;102944.25;4983397;28;20077;-80
2023/02/10 05:11:29;;;;;;;77.22;42.35;;;;;;;0.26;100.00;102931.66;4984473;28;20082;-80
2023/02/10 05:13:56;;;;;;;85.03;44.17;;;;;;;0.25;100.00;102937.69;4984485;28;20126;-79
2023/02/10 05:16:22;;;;;;;78.93;41.28;;;;;;;0.22;100.00;102937.75;4983530;28;20058;-77
2023/02/10 05:18:51;;;;;;;83.53;44.70;;;;;;;0.26;100.00;102936.81;4977679;28;20138;-79
2023/02/10 05:21:21;;;;;;;92.78;45.10;;;;;;;0.26;100.00;102934.22;4975944;28;20470;-78
2023/02/10 05:23:47;;;;;;;85.60;43.15;;;;;;;0.35;100.00;102950.38;4976932;28;20367;-77
2023/02/10 05:26:14;;;;;;;90.50;45.28;;;;;;;0.42;100.00;102944.19;4978656;28;20053;-80
2023/02/10 05:28:41;;;;;;;88.82;43.17;;;;;;;0.30;100.00;102941.00;4980524;28;20054;-79
2023/02/10 05:31:08;;;;;;;86.25;42.95;;;;;;;0.31;100.00;102942.69;4978227;28;20449;-79
2023/02/10 05:33:35;;;;;;;80.60;41.92;;;;;;;0.33;100.00;102935.78;4976835;28;20051;-79
2023/02/10 05:36:02;;;;;;;86.68;44.20;;;;;;;0.43;100.00;102933.00;4977083;28;20043;-79
2023/02/10 05:38:32;;;;;;;82.53;41.40;;;;;;;0.40;100.00;102940.81;4979006;28;20081;-80
2023/02/10 05:40:59;;;;;;;86.65;43.47;;;;;;;0.43;100.00;102941.59;4982648;28;20078;-80
2023/02/10 05:43:25;;;;;;;79.90;41.58;;;;;;;0.37;100.00;102946.88;4979380;28;20093;-80
2023/02/10 05:45:52;;;;;;;88.55;42.08;;;;;;;0.24;100.00;102946.28;4977127;28;20082;-80
2023/02/10 05:48:18;;;;;;;95.25;43.97;;;;;;;0.13;100.00;102948.25;4983923;28;20135;-78
2023/02/10 05:50:45;;;;;;;79.38;41.50;;;;;;;0.05;100.00;102946.69;4980112;28;20063;-78
2023/02/10 05:53:13;;;;;;;86.10;43.50;;;;;;;0.17;100.00;102955.03;4979568;28;20181;-79
2023/02/10 05:55:40;;;;;;;75.68;40.08;;;;;;;0.18;100.00;102954.13;4976677;28;20074;-79
2023/02/10 05:58:07;;;;;;;85.05;42.05;;;;;;;0.09;100.00;102954.34;4975270;28;20105;-82
2023/02/10 06:00:34;;;;;;;84.60;41.38;;;;;;;0.01;100.00;102956.22;4979476;28;20046;-80
2023/02/10 06:03:00;;;;;;;82.07;41.33;;;;;;;-0.09;100.00;102959.88;4979540;28;20051;-80
2023/02/10 06:05:27;;;;;;;88.05;44.72;;;;;;;-0.15;100.00;102954.84;4978454;28;20137;-78
2023/02/10 06:07:55;;;;;;;89.03;42.88;;;;;;;-0.18;100.00;102958.31;4975335;28;20133;-79
2023/02/10 06:10:22;;;;;;;91.97;41.85;;;;;;;-0.26;100.00;102954.22;4972592;28;20054;-82
2023/02/10 06:12:50;;;;;;;81.85;40.60;;;;;;;-0.30;100.00;102947.41;4984428;28;20539;-81
2023/02/10 06:15:17;;;;;;;82.65;42.20;;;;;;;-0.31;100.00;102961.16;4980394;28;20046;-80
2023/02/10 06:17:43;;;;;;;87.03;40.88;;;;;;;-0.37;100.00;102951.84;4975650;28;20050;-82
2023/02/10 06:20:11;;;;;;;89.60;43.40;;;;;;;-0.39;100.00;102964.72;4980865;28;20071;-82
2023/02/10 06:22:39;;;;;;;87.05;42.08;;;;;;;-0.37;100.00;102968.13;4984696;28;20058;-79
2023/02/10 06:25:06;;;;;;;91.97;42.75;;;;;;;-0.39;100.00;102969.88;4979093;28;20093;-81
2023/02/10 06:27:35;;;;;;;85.70;43.40;;;;;;;-0.48;100.00;102975.22;4980627;28;20046;-81
2023/02/10 06:30:06;;;;;;;86.63;44.08;;;;;;;-0.48;100.00;102974.34;4986583;28;20051;-81
2023/02/10 06:32:35;;;;;;;90.35;42.17;;;;;;;-0.44;100.00;102983.69;4985610;28;20081;-80
2023/02/10 06:37:36;;;;;;;83.82;42.05;;;;;;;-0.63;100.00;102992.63;4962147;29;20047;-78
2023/02/10 06:40:04;;;;;;;82.75;42.13;;;;;;;-0.70;100.00;102991.88;4966100;29;20176;-79
2023/02/10 06:42:30;;;;;;;81.45;40.63;;;;;;;-0.68;100.00;102992.69;4965400;29;20087;-79
2023/02/10 06:44:57;;;;;;;83.32;41.38;;;;;;;-0.63;100.00;103001.19;4965877;28;20048;-79
2023/02/10 06:47:25;;;;;;;87.75;45.05;;;;;;;-0.31;100.00;102990.31;4966822;28;20043;-79
2023/02/10 06:49:52;;;;;;;93.07;44.17;;;;;;;-0.31;100.00;103002.31;4966957;28;20051;-79
2023/02/10 06:52:18;;;;;;;92.85;43.05;;;;;;;-0.50;100.00;103005.25;4966725;29;20115;-79
2023/02/10 06:54:45;;;;;;;92.43;43.47;;;;;;;-0.48;100.00;103011.22;4965766;28;20099;-78
2023/02/10 06:57:15;;;;;;;88.03;43.17;;;;;;;-0.61;100.00;103020.00;4961300;29;20056;-79
2023/02/10 06:59:41;;;;;;;93.55;43.50;;;;;;;-0.64;100.00;103014.06;4967224;28;20058;-79
2023/02/10 07:02:09;;;;;;;94.18;43.67;;;;;;;-0.44;100.00;103025.69;4960707;28;20120;-78
2023/02/10 07:04:37;;;;;;;93.25;43.63;;;;;;;-0.42;100.00;103023.09;4963833;28;20058;-78
2023/02/10 07:07:04;;;;;;;87.00;43.80;;;;;;;-0.40;100.00;103024.75;4958798;28;20043;-77
2023/02/10 07:09:31;;;;;;;94.05;45.50;;;;;;;-0.26;100.00;103021.09;4959254;28;20159;-77
2023/02/10 07:11:59;;;;;;;94.15;45.47;;;;;;;-0.19;100.00;103028.69;4959249;28;20158;-77
2023/02/10 07:14:26;;;;;;;96.88;43.28;;;;;;;-0.16;100.00;103036.34;4953690;29;20142;-77
2023/02/10 07:16:52;;;;;;;91.25;44.90;;;;;;;-0.18;100.00;103019.25;4960931;28;20089;-79
2023/02/10 07:19:19;;;;;;;113.10;56.15;;;;;;;-0.08;100.00;103023.34;4966005;29;20078;-79
2023/02/10 07:21:47;;;;;;;97.13;45.58;;;;;;;0.25;100.00;103025.22;4957550;28;20090;-78
2023/02/10 07:24:14;;;;;;;97.78;47.40;;;;;;;0.20;100.00;103027.06;4960340;29;20067;-79
2023/02/10 07:26:41;;;;;;;97.75;44.28;;;;;;;0.33;100.00;103028.50;4958456;28;20051;-78
2023/02/10 07:29:07;;;;;;;102.75;47.38;;;;;;;0.28;100.00;103025.16;4955589;29;20043;-76
2023/02/10 07:31:35;;;;;;;96.07;44.20;;;;;;;0.29;100.00;103026.88;4957911;28;20134;-78
2023/02/10 07:34:02;;;;;;;95.97;43.85;;;;;;;0.27;100.00;103028.63;4955677;28;20152;-75
2023/02/10 07:36:29;;;;;;;98.65;44.60;;;;;;;0.27;100.00;103027.78;4958955;28;20402;-77
2023/02/10 07:38:57;;;;;;;97.75;45.20;;;;;;;0.31;100.00;103024.25;4958827;28;20101;-77
2023/02/10 07:41:23;;;;;;;97.28;44.53;;;;;;;0.32;100.00;103024.22;4959064;29;20138;-78
2023/02/10 07:43:50;;;;;;;94.18;44.92;;;;;;;0.33;100.00;103025.06;4958481;28;20518;-78
2023/02/10 07:46:16;;;;;;;102.95;44.05;;;;;;;0.41;100.00;103019.78;4958005;29;20085;-77
2023/02/10 07:48:43;;;;;;;96.80;44.80;;;;;;;0.30;100.00;103013.13;4957967;28;20078;-77
2023/02/10 07:51:10;;;;;;;93.85;44.40;;;;;;;0.48;100.00;103013.59;4958205;29;20134;-76
2023/02/10 07:53:37;;;;;;;88.55;42.72;;;;;;;0.43;100.00;103015.44;4958013;28;20086;-78
2023/02/10 07:56:05;;;;;;;90.15;44.55;;;;;;;0.54;100.00;103016.88;4951835;28;20056;-78
2023/02/10 07:59:24;;;;;;;98.38;47.47;;;;;;;0.33;100.00;103000.19;4961995;28;20154;-80
2023/02/10 08:01:51;;;;;;;99.47;45.95;;;;;;;0.50;100.00;103016.97;4960252;29;20051;-77
2023/02/10 08:04:17;;;;;;;98.85;46.58;;;;;;;0.58;100.00;103012.50;4959972;29;20115;-78
2023/02/10 08:06:47;;;;;;;98.78;45.90;;;;;;;0.80;100.00;103018.03;4956137;28;20082;-77
2023/02/10 08:09:17;;;;;;;92.13;43.50;;;;;;;1.11;100.00;103020.72;4957902;28;20462;-79
2023/02/10 08:11:45;;;;;;;93.50;44.92;;;;;;;1.32;100.00;103007.31;4961625;28;20075;-79
2023/02/10 08:14:11;;;;;;;84.30;42.97;;;;;;;1.36;100.00;103003.78;4959360;29;20213;-78
2023/02/10 08:16:38;;;;;;;85.70;41.13;;;;;;;1.36;100.00;103010.69;4958697;28;20453;-78
2023/02/10 08:19:05;;;;;;;88.05;41.50;;;;;;;1.52;100.00;103015.38;4960835;28;20178;-80
2023/02/10 08:21:31;;;;;;;80.75;40.10;;;;;;;1.80;100.00;103004.34;4952768;28;20162;-78
2023/02/10 08:24:01;;;;;;;76.25;40.42;;;;;;;2.13;100.00;102995.63;4959739;28;20111;-80
2023/02/10 08:26:28;;;;;;;80.18;40.15;;;;;;;2.57;100.00;103012.41;4955504;29;20093;-78
2023/02/10 08:28:58;;;;;;;81.28;38.20;;;;;;;2.87;100.00;103002.84;4959984;28;20466;-79
2023/02/10 08:31:25;;;;;;;77.43;37.88;;;;;;;2.99;100.00;102997.28;4954101;29;20330;-79
2023/02/10 08:33:51;;;;;;;71.32;38.35;;;;;;;2.98;100.00;103003.34;4959878;28;20055;-78
2023/02/10 08:36:20;;;;;;;76.72;39.20;;;;;;;3.13;100.00;103009.78;4955619;28;20126;-79
2023/02/10 08:38:48;;;;;;;76.30;39.53;;;;;;;3.15;99.68;103017.50;4957214;28;20126;-77
2023/02/10 08:41:16;;;;;;;65.10;35.58;;;;;;;3.27;99.00;103020.53;4954950;29;20074;-79
2023/02/10 08:43:43;;;;;;;73.18;38.28;;;;;;;3.35;98.58;103015.06;4956357;28;20107;-78
2023/02/10 08:46:11;;;;;;;69.72;35.20;;;;;;;3.53;97.76;103018.78;4955269;28;20122;-78
2023/02/10 08:48:37;;;;;;;70.10;35.38;;;;;;;3.57;97.23;103021.22;4955769;28;20047;-77
2023/02/10 08:51:07;;;;;;;63.20;35.13;;;;;;;3.51;96.70;103011.09;4959638;28;20110;-79
2023/02/10 08:53:34;;;;;;;71.30;36.70;;;;;;;3.53;96.64;103009.28;4964273;28;20122;-80
2023/02/10 08:56:03;;;;;;;67.50;35.63;;;;;;;3.58;96.20;103017.75;4960197;28;20138;-80
2023/02/10 08:58:30;;;;;;;65.13;35.95;;;;;;;3.48;95.78;103020.69;4963701;28;20039;-79
2023/02/10 09:00:57;;;;;;;72.18;36.70;;;;;;;3.54;96.01;103021.34;4965281;28;20051;-78
2023/02/10 09:03:26;;;;;;;65.90;36.40;;;;;;;3.58;95.91;103016.91;4966384;28;20070;-78
2023/02/10 09:05:53;;;;;;;64.07;35.67;;;;;;;3.47;95.55;103014.66;4965892;28;20051;-78
2023/02/10 09:08:19;;;;;;;72.75;37.10;;;;;;;3.13;96.42;103014.09;4958849;29;20407;-77
2023/02/10 09:10:47;;;;;;;70.40;37.45;;;;;;;3.32;96.92;103017.75;4955053;28;20106;-77
2023/02/10 09:13:14;;;;;;;75.90;38.33;;;;;;;3.05;97.29;103021.28;4959437;29;20074;-79
2023/02/10 09:15:42;;;;;;;77.38;39.28;;;;;;;3.15;98.33;103022.66;4958472;28;20094;-79
2023/02/10 09:18:10;;;;;;;72.93;37.05;;;;;;;3.10;98.18;103019.38;4961123;29;20114;-79
2023/02/10 09:20:39;;;;;;;74.50;37.80;;;;;;;3.27;98.47;103023.13;4961190;28;20078;-78
2023/02/10 09:23:05;;;;;;;74.68;38.70;;;;;;;3.38;97.75;103019.31;4960239;28;20055;-79
2023/02/10 09:25:32;;;;;;;74.10;38.70;;;;;;;3.63;97.76;103033.97;4959808;28;20497;-80
2023/02/10 09:27:59;;;;;;;77.45;38.35;;;;;;;3.42;97.58;103036.44;4956343;28;20078;-79
2023/02/10 09:30:26;;;;;;;80.00;39.63;;;;;;;3.62;97.63;103045.22;4950367;29;20155;-78
2023/02/10 09:32:53;;;;;;;79.80;37.17;;;;;;;3.62;97.56;103034.03;4955690;28;20503;-76
2023/02/10 09:35:20;;;;;;;64.13;35.33;;;;;;;3.62;97.61;103040.03;4956118;28;20146;-77
2023/02/10 09:37:48;;;;;;;72.30;37.65;;;;;;;3.59;97.31;103036.72;4952900;28;20090;-77
2023/02/10 09:40:21;;;;;;;72.22;36.63;;;;;;;3.81;97.84;103026.44;4955496;29;20429;-76
2023/02/10 09:43:03;;;;;;;70.28;36.17;;;;;;;3.95;97.65;103037.16;4952473;29;20134;-76
2023/02/10 09:45:37;;;;;;;66.47;35.50;;;;;;;4.16;97.27;103041.59;4950838;29;20047;-78
2023/02/10 09:48:24;;;;;;;61.40;35.10;;;;;;;4.14;95.98;103032.19;4957619;28;20075;-77
2023/02/10 09:51:00;;;;;;;69.32;35.30;;;;;;;3.93;96.46;103036.38;4961024;28;20612;-79
2023/02/10 09:53:31;;;;;;;68.72;35.05;;;;;;;3.96;96.89;103036.25;4961706;28;20098;-77
2023/02/10 09:55:59;;;;;;;67.47;35.42;;;;;;;4.18;96.83;103042.38;4954054;29;20461;-77
2023/02/10 09:58:32;;;;;;;62.15;33.85;;;;;;;4.39;96.96;103050.25;4948068;29;20051;-76
2023/02/10 10:01:05;;;;;;;70.22;33.25;;;;;;;4.51;96.47;103042.00;4956054;28;20424;-76
2023/02/10 10:03:42;;;;;;;64.78;33.90;;;;;;;4.43;95.33;103050.06;4949086;29;20055;-76
2023/02/10 10:06:18;;;;;;;67.00;35.25;;;;;;;4.55;95.44;103053.97;4954483;28;20115;-76
2023/02/10 10:08:55;;;;;;;60.08;33.25;;;;;;;4.95;94.69;103061.03;4957893;28;20136;-77
2023/02/10 10:11:30;;;;;;;66.10;33.13;;;;;;;5.13;94.57;103062.06;4956578;29;20174;-77
2023/02/10 10:13:58;;;;;;;67.47;35.13;;;;;;;5.11;93.25;103063.88;4955114;28;20081;-77
2023/02/10 10:16:49;;;;;;;61.42;33.45;;;;;;;5.15;93.09;103061.09;4954838;29;20078;-78
2023/02/10 10:19:27;;;;;;;64.75;33.97;;;;;;;5.21;92.90;103053.03;4952457;29;20043;-74
2023/02/10 10:22:07;;;;;;;61.17;32.97;;;;;;;5.17;92.37;103059.28;4954904;28;20051;-78
2023/02/10 10:24:59;;;;;;;67.20;33.70;;;;;;;5.22;92.09;103059.06;4948806;29;20130;-78
2023/02/10 10:27:32;;;;;;;61.25;32.13;;;;;;;5.31;92.56;103051.75;4947933;29;20079;-77
2023/02/10 10:30:07;;;;;;;59.30;34.03;;;;;;;5.38;92.24;103062.75;4955565;29;20093;-77
2023/02/10 10:32:42;;;;;;;60.20;31.83;;;;;;;5.49;91.78;103065.75;4950045;29;20130;-78
2023/02/10 10:35:16;;;;;;;62.72;34.03;;;;;;;5.59;91.33;103072.25;4955055;28;20051;-76
2023/02/10 10:37:43;;;;;;;65.90;33.17;;;;;;;5.67;91.44;103069.34;4954130;28;20138;-77
2023/02/10 10:40:18;;;;;;;65.03;33.13;;;;;;;5.69;91.19;103067.50;4955444;28;20048;-77
2023/02/10 10:42:47;;;;;;;65.22;32.85;;;;;;;5.78;90.98;103074.06;4954221;28;20078;-76
2023/02/10 10:45:18;;;;;;;63.20;33.75;;;;;;;5.83;90.58;103070.34;4954218;28;20106;-76
2023/02/10 10:47:48;;;;;;;55.47;30.40;;;;;;;5.78;90.01;103068.84;4955425;28;20134;-78
2023/02/10 10:50:17;;;;;;;61.42;30.40;;;;;;;5.84;89.52;103063.41;4954622;28;20106;-78
2023/02/10 10:52:50;;;;;;;59.78;31.77;;;;;;;5.90;89.03;103060.56;4955548;28;20130;-77
2023/02/10 10:55:22;;;;;;;59.25;30.95;;;;;;;5.94;88.49;103041.34;4955547;28;20477;-78
2023/02/10 10:57:50;;;;;;;57.67;30.52;;;;;;;6.04;88.13;103053.03;4955872;28;20071;-77
2023/02/10 11:00:21;;;;;;;62.33;31.90;;;;;;;6.06;88.41;103048.59;4955311;28;20130;-77
2023/02/10 11:02:57;;;;;;;56.35;30.30;;;;;;;6.08;88.00;103041.59;4954991;28;20114;-78
2023/02/10 11:05:28;;;;;;;53.97;31.00;;;;;;;6.13;88.40;103042.22;4955197;28;20047;-78
2023/02/10 11:07:57;;;;;;;65.18;33.28;;;;;;;6.06;88.36;103035.59;4959099;28;20055;-77
2023/02/10 11:10:28;;;;;;;69.90;34.15;;;;;;;6.30;88.00;103046.66;4958346;29;20524;-76
2023/02/10 11:12:56;;;;;;;61.42;33.30;;;;;;;6.39;87.97;103043.63;4959409;28;20494;-77
2023/02/10 11:15:32;;;;;;;64.57;33.50;;;;;;;6.42;87.70;103040.03;4956834;29;20138;-78
2023/02/10 11:18:00;;;;;;;62.83;33.72;;;;;;;6.54;87.85;103032.53;4950676;29;20133;-78
2023/02/10 11:20:29;;;;;;;59.70;32.22;;;;;;;6.74;86.63;103028.97;4952874;29;20554;-77
2023/02/10 11:22:58;;;;;;;56.70;30.60;;;;;;;6.87;85.74;103016.22;4961056;28;20089;-77